createdAt,value
2022-12-18T00:00:58.184Z,80.39
2022-12-18T00:03:47.748Z,80.41
2022-12-18T00:06:19.914Z,80.57
2022-12-18T00:08:52.080Z,80.30
2022-12-18T00:11:24.778Z,80.22
2022-12-18T00:13:58.568Z,80.20
2022-12-18T00:16:33.899Z,80.33
2022-12-18T00:19:05.833Z,80.33
2022-12-18T00:21:37.439Z,80.20
2022-12-18T00:24:09.711Z,80.40
2022-12-18T00:26:41.677Z,80.53
2022-12-18T00:29:16.201Z,80.47
2022-12-18T00:31:48.150Z,80.54
2022-12-18T00:34:19.141Z,80.46
2022-12-18T00:36:51.235Z,80.43
2022-12-18T00:39:22.329Z,80.46
2022-12-18T00:42:10.995Z,80.52
2022-12-18T00:44:42.117Z,80.58
2022-12-18T00:47:13.258Z,80.71
2022-12-18T00:49:44.398Z,80.73
2022-12-18T00:52:15.418Z,80.80
2022-12-18T00:54:46.596Z,80.84
2022-12-18T00:57:17.822Z,80.86
2022-12-18T00:59:51.388Z,80.85
2022-12-18T01:02:22.899Z,80.86
2022-12-18T01:04:54.253Z,80.74
2022-12-18T01:07:25.298Z,80.85
2022-12-18T01:09:56.294Z,80.88
2022-12-18T01:12:27.438Z,80.89
2022-12-18T01:14:58.365Z,80.77
2022-12-18T01:17:29.433Z,80.76
2022-12-18T01:20:00.338Z,80.85
2022-12-18T01:22:31.477Z,80.71
2022-12-18T01:25:02.738Z,80.74
2022-12-18T01:27:35.024Z,80.71
2022-12-18T01:30:07.063Z,80.84
2022-12-18T01:32:38.133Z,80.91
2022-12-18T01:35:10.489Z,80.96
2022-12-18T01:37:41.580Z,80.80
2022-12-18T01:40:13.897Z,80.93
2022-12-18T01:42:44.893Z,81.16
2022-12-18T01:45:30.651Z,81.03
2022-12-18T01:48:03.947Z,81.23
2022-12-18T01:50:38.481Z,81.06
2022-12-18T01:53:13.547Z,81.09
2022-12-18T01:55:48.847Z,81.28
2022-12-18T01:58:21.653Z,81.51
2022-12-18T02:00:52.698Z,81.46
2022-12-18T02:03:24.020Z,81.78
2022-12-18T02:06:08.146Z,81.75
2022-12-18T02:08:46.062Z,81.76
2022-12-18T02:11:24.674Z,81.86
2022-12-18T02:14:06.142Z,81.95
2022-12-18T02:16:47.304Z,81.94
2022-12-18T02:19:57.487Z,82.04
2022-12-18T02:22:46.973Z,82.28
2022-12-18T02:25:31.200Z,82.18
2022-12-18T02:28:01.890Z,82.41
2022-12-18T02:30:35.968Z,82.28
2022-12-18T02:33:09.926Z,82.28
2022-12-18T02:35:43.568Z,82.33
2022-12-18T02:38:16.442Z,82.36
2022-12-18T02:40:48.467Z,82.59
2022-12-18T02:43:19.772Z,82.58
2022-12-18T02:45:59.089Z,82.72
2022-12-18T02:48:35.291Z,82.76
2022-12-18T02:51:15.328Z,82.67
2022-12-18T02:53:53.578Z,82.73
2022-12-18T02:56:31.945Z,82.69
2022-12-18T02:59:07.860Z,82.59
2022-12-18T03:01:46.448Z,82.52
2022-12-18T03:04:23.569Z,82.83
2022-12-18T03:06:58.786Z,82.72
2022-12-18T03:09:35.115Z,82.57
2022-12-18T03:12:26.232Z,82.77
2022-12-18T03:15:03.104Z,82.54
2022-12-18T03:17:35.681Z,82.59
2022-12-18T03:20:12.651Z,82.74
2022-12-18T03:22:46.757Z,82.78
2022-12-18T03:25:19.310Z,82.88
2022-12-18T03:27:52.025Z,82.95
2022-12-18T03:30:23.686Z,82.82
2022-12-18T03:33:02.500Z,82.81
2022-12-18T03:35:37.175Z,82.82
2022-12-18T03:38:08.470Z,82.55
2022-12-18T03:40:49.735Z,82.70
2022-12-18T03:43:29.358Z,82.70
2022-12-18T03:46:09.539Z,82.57
2022-12-18T03:48:45.700Z,82.57
2022-12-18T03:51:25.718Z,82.45
2022-12-18T03:54:00.667Z,82.39
2022-12-18T03:56:34.673Z,82.33
2022-12-18T03:59:06.842Z,82.14
2022-12-18T04:01:42.349Z,82.20
2022-12-18T04:04:16.610Z,82.14
2022-12-18T04:06:49.627Z,82.27
2022-12-18T04:09:22.887Z,82.25
2022-12-18T04:11:55.143Z,82.20
2022-12-18T04:14:26.189Z,82.33
2022-12-18T04:16:57.141Z,82.28
2022-12-18T04:19:28.385Z,82.19
2022-12-18T04:21:59.847Z,82.07
2022-12-18T04:24:31.004Z,82.05
2022-12-18T04:27:02.228Z,82.04
2022-12-18T04:29:33.415Z,81.95
2022-12-18T04:32:04.379Z,82.11
2022-12-18T04:34:35.554Z,82.04
2022-12-18T04:37:06.407Z,81.88
2022-12-18T04:39:38.051Z,82.20
2022-12-18T04:42:09.071Z,82.30
2022-12-18T04:44:39.918Z,82.21
2022-12-18T04:47:11.045Z,82.28
2022-12-18T04:49:42.002Z,82.28
2022-12-18T04:52:12.892Z,82.51
2022-12-18T04:54:44.066Z,82.42
2022-12-18T04:57:15.100Z,82.59
2022-12-18T04:59:46.174Z,82.61
2022-12-18T05:02:17.308Z,82.64
2022-12-18T05:04:48.741Z,82.48
2022-12-18T05:07:19.711Z,82.56
2022-12-18T05:09:50.696Z,82.43
2022-12-18T05:12:21.780Z,82.26
2022-12-18T05:14:53.022Z,82.41
2022-12-18T05:17:24.183Z,82.45
2022-12-18T05:19:55.106Z,82.30
2022-12-18T05:22:26.946Z,82.40
2022-12-18T05:24:56.327Z,82.33
2022-12-18T05:27:27.329Z,82.37
2022-12-18T05:29:58.395Z,82.50
2022-12-18T05:32:29.523Z,82.17
2022-12-18T05:35:00.676Z,82.19
2022-12-18T05:37:32.153Z,82.34
2022-12-18T05:40:03.215Z,82.23
2022-12-18T05:42:34.408Z,82.20
2022-12-18T05:45:06.044Z,81.87
2022-12-18T05:47:37.372Z,81.83
2022-12-18T05:50:10.371Z,81.61
2022-12-18T05:52:41.296Z,81.19
2022-12-18T05:55:12.681Z,80.90
2022-12-18T05:57:43.739Z,80.52
2022-12-18T06:00:17.391Z,80.46
2022-12-18T06:02:51.636Z,80.45
2022-12-18T06:05:23.098Z,80.56
2022-12-18T06:07:54.242Z,80.21
2022-12-18T06:10:25.330Z,80.28
2022-12-18T06:12:56.120Z,80.27
2022-12-18T06:15:27.000Z,80.26
2022-12-18T06:17:58.138Z,80.22
2022-12-18T06:20:33.233Z,80.16
2022-12-18T06:23:04.924Z,80.21
2022-12-18T06:25:35.899Z,79.90
2022-12-18T06:28:07.954Z,79.77
2022-12-18T06:30:38.923Z,80.26
2022-12-18T06:33:10.112Z,79.90
2022-12-18T06:35:41.280Z,79.86
2022-12-18T06:38:12.343Z,79.96
2022-12-18T06:40:43.170Z,80.06
2022-12-18T06:43:14.240Z,79.91
2022-12-18T06:45:45.320Z,79.87
2022-12-18T06:48:16.747Z,79.76
2022-12-18T06:50:47.867Z,79.74
2022-12-18T06:53:18.881Z,79.93
2022-12-18T06:55:49.919Z,79.74
2022-12-18T06:58:21.027Z,79.90
2022-12-18T07:00:52.985Z,79.83
2022-12-18T07:03:22.258Z,79.88
2022-12-18T07:05:53.154Z,79.95
2022-12-18T07:08:24.335Z,79.74
2022-12-18T07:10:56.467Z,79.77
2022-12-18T07:13:27.972Z,79.83
2022-12-18T07:16:06.107Z,79.82
2022-12-18T07:18:40.034Z,79.51
2022-12-18T07:21:14.195Z,79.67
2022-12-18T07:23:45.858Z,79.67
2022-12-18T07:26:18.949Z,79.56
2022-12-18T07:28:50.935Z,79.72
2022-12-18T07:31:23.869Z,79.84
2022-12-18T07:33:55.262Z,80.09
2022-12-18T07:36:26.953Z,80.23
2022-12-18T07:38:57.097Z,80.38
2022-12-18T07:41:28.167Z,80.60
2022-12-18T07:43:59.148Z,80.67
2022-12-18T07:46:29.914Z,80.82
2022-12-18T07:49:01.006Z,81.02
2022-12-18T07:51:32.096Z,81.08
2022-12-18T07:54:04.572Z,81.30
2022-12-18T07:56:35.281Z,81.30
2022-12-18T07:59:09.196Z,81.21
2022-12-18T08:01:40.211Z,81.21
2022-12-18T08:04:11.455Z,81.01
2022-12-18T08:06:46.241Z,80.92
2022-12-18T08:09:19.406Z,80.81
2022-12-18T08:11:50.291Z,81.11
2022-12-18T08:14:21.329Z,81.05
2022-12-18T08:16:52.514Z,81.07
2022-12-18T08:19:23.488Z,80.95
2022-12-18T08:21:57.180Z,80.80
2022-12-18T08:24:28.132Z,80.96
2022-12-18T08:27:27.904Z,80.57
2022-12-18T08:29:50.461Z,80.57
2022-12-18T08:32:21.503Z,80.44
2022-12-18T08:34:52.438Z,80.44
2022-12-18T08:37:23.773Z,80.50
2022-12-18T08:39:54.736Z,80.40
2022-12-18T08:42:43.435Z,80.81
2022-12-18T08:45:14.608Z,80.92
2022-12-18T08:47:45.484Z,80.93
2022-12-18T08:50:18.541Z,80.80
2022-12-18T08:52:49.578Z,81.16
2022-12-18T08:55:20.802Z,81.15
2022-12-18T08:57:53.342Z,81.35
2022-12-18T09:00:25.005Z,81.54
2022-12-18T09:02:57.126Z,81.57
2022-12-18T09:05:28.238Z,81.71
2022-12-18T09:07:59.202Z,81.59
2022-12-18T09:10:30.353Z,81.63
2022-12-18T09:13:01.620Z,81.53
2022-12-18T09:15:32.711Z,81.58
2022-12-18T09:18:03.732Z,81.52
2022-12-18T09:20:34.731Z,81.52
2022-12-18T09:23:05.618Z,81.41
2022-12-18T09:25:37.893Z,81.42
2022-12-18T09:28:15.616Z,81.20
2022-12-18T09:30:49.795Z,81.21
2022-12-18T09:33:21.345Z,80.81
2022-12-18T09:35:52.424Z,80.61
2022-12-18T09:38:24.288Z,80.76
2022-12-18T09:40:59.986Z,80.22
2022-12-18T09:43:36.356Z,79.94
2022-12-18T09:46:12.872Z,79.62
2022-12-18T09:48:48.425Z,79.46
2022-12-18T09:51:23.150Z,79.34
2022-12-18T09:53:59.582Z,79.35
2022-12-18T09:56:36.648Z,79.60
2022-12-18T09:59:08.986Z,79.58
2022-12-18T10:01:44.484Z,79.78
2022-12-18T10:04:15.695Z,79.92
2022-12-18T10:06:54.298Z,79.29
2022-12-18T10:09:36.020Z,79.46
2022-12-18T10:12:15.971Z,79.20
2022-12-18T10:14:54.140Z,79.23
2022-12-18T10:17:37.707Z,79.26
2022-12-18T10:20:18.039Z,79.28
2022-12-18T10:22:59.136Z,79.12
2022-12-18T10:25:36.773Z,78.53
2022-12-18T10:28:16.903Z,78.48
2022-12-18T10:30:47.824Z,78.64
2022-12-18T10:33:21.386Z,78.80
2022-12-18T10:35:54.647Z,78.67
2022-12-18T10:38:28.720Z,78.76
2022-12-18T10:41:01.353Z,78.44
2022-12-18T10:43:34.390Z,78.56
2022-12-18T10:46:18.737Z,78.74
2022-12-18T10:48:57.194Z,78.71
2022-12-18T10:51:31.934Z,78.05
2022-12-18T10:54:06.411Z,78.32
2022-12-18T10:56:39.082Z,78.21
2022-12-18T10:59:12.724Z,78.30
2022-12-18T11:04:11.717Z,78.40
2022-12-18T11:06:58.521Z,78.20
2022-12-18T11:09:32.814Z,78.14
2022-12-18T11:12:07.200Z,78.16
2022-12-18T11:14:49.563Z,77.48
2022-12-18T11:17:30.285Z,77.37
2022-12-18T11:20:03.631Z,77.93
2022-12-18T11:22:37.215Z,77.83
2022-12-18T11:25:32.378Z,78.07
2022-12-18T11:28:05.487Z,78.10
2022-12-18T11:30:37.927Z,78.26
2022-12-18T11:33:11.989Z,78.72
2022-12-18T11:35:51.736Z,78.66
2022-12-18T11:38:26.530Z,78.62
2022-12-18T11:41:02.662Z,78.63
2022-12-18T11:43:40.255Z,78.36
2022-12-18T11:46:19.823Z,78.43
2022-12-18T11:48:58.322Z,78.24
2022-12-18T11:51:39.561Z,77.83
2022-12-18T11:54:16.871Z,78.04
2022-12-18T11:56:51.664Z,78.17
2022-12-18T11:59:34.408Z,78.19
2022-12-18T12:02:19.746Z,78.26
2022-12-18T12:05:15.084Z,78.32
2022-12-18T12:07:56.360Z,78.31
2022-12-18T12:10:43.407Z,78.46
2022-12-18T12:13:31.522Z,78.37
2022-12-18T12:16:12.118Z,78.18
2022-12-18T12:18:58.770Z,78.25
2022-12-18T12:21:39.483Z,77.97
2022-12-18T12:24:21.832Z,78.04
2022-12-18T12:27:00.756Z,77.98
2022-12-18T12:29:45.062Z,77.39
2022-12-18T12:32:32.347Z,77.24
2022-12-18T12:35:17.801Z,77.55
2022-12-18T12:37:54.954Z,77.88
2022-12-18T12:43:29.409Z,78.13
2022-12-18T12:46:05.378Z,78.46
2022-12-18T12:48:44.618Z,78.62
2022-12-18T12:51:18.404Z,78.79
2022-12-18T12:53:50.179Z,79.28
2022-12-18T12:56:24.441Z,79.55
2022-12-18T12:59:04.291Z,79.56
2022-12-18T13:01:43.617Z,79.92
2022-12-18T13:04:26.017Z,80.21
2022-12-18T13:07:05.894Z,80.40
2022-12-18T13:09:58.274Z,80.87
2022-12-18T13:12:50.029Z,80.89
2022-12-18T13:15:26.218Z,81.01
2022-12-18T13:18:21.493Z,81.58
2022-12-18T13:21:04.042Z,81.44
2022-12-18T13:23:39.749Z,81.38
2022-12-18T13:26:43.217Z,81.38
2022-12-18T13:29:33.899Z,81.48
2022-12-18T13:32:05.384Z,81.59
2022-12-18T13:34:35.694Z,81.51
2022-12-18T13:37:45.710Z,81.88
2022-12-18T13:40:56.087Z,81.72
2022-12-18T13:43:35.640Z,82.07
2022-12-18T13:46:19.957Z,82.10
2022-12-18T13:48:57.331Z,82.04
2022-12-18T13:51:29.794Z,82.17
2022-12-18T13:54:03.944Z,82.09
2022-12-18T13:56:35.972Z,82.11
2022-12-18T13:59:22.284Z,81.91
2022-12-18T14:01:58.327Z,82.13
2022-12-18T14:04:33.690Z,81.91
2022-12-18T14:07:09.630Z,81.98
2022-12-18T14:09:44.642Z,82.23
2022-12-18T14:12:40.349Z,82.16
2022-12-18T14:15:26.389Z,82.70
2022-12-18T14:18:00.172Z,82.97
2022-12-18T14:20:34.007Z,83.00
2022-12-18T14:23:05.877Z,83.31
2022-12-18T14:25:35.444Z,83.30
2022-12-18T14:28:17.715Z,83.49
2022-12-18T14:30:49.318Z,83.47
2022-12-18T14:33:21.957Z,83.44
2022-12-18T14:36:01.735Z,83.61
2022-12-18T14:38:34.759Z,83.71
2022-12-18T14:41:07.883Z,83.51
2022-12-18T14:43:40.874Z,83.61
2022-12-18T14:46:30.921Z,83.53
2022-12-18T14:49:03.823Z,83.49
2022-12-18T14:51:36.599Z,83.32
2022-12-18T14:54:16.548Z,83.02
2022-12-18T14:56:50.793Z,82.98
2022-12-18T14:59:25.241Z,83.06
2022-12-18T15:02:04.232Z,82.76
2022-12-18T15:04:40.327Z,82.94
2022-12-18T15:07:17.242Z,82.90
2022-12-18T15:10:05.529Z,82.78
2022-12-18T15:12:41.062Z,82.75
2022-12-18T15:15:43.430Z,82.59
2022-12-18T15:18:20.633Z,82.43
2022-12-18T15:20:54.206Z,82.37
2022-12-18T15:23:27.394Z,82.36
2022-12-18T15:26:03.415Z,82.28
2022-12-18T15:28:39.699Z,82.10
2022-12-18T15:31:26.779Z,82.03
2022-12-18T15:34:16.396Z,82.00
2022-12-18T15:36:47.292Z,81.74
2022-12-18T15:39:18.563Z,81.80
2022-12-18T15:42:07.598Z,81.78
2022-12-18T15:44:38.917Z,82.29
2022-12-18T15:47:14.515Z,82.44
2022-12-18T15:49:45.628Z,82.52
2022-12-18T15:52:26.976Z,82.41
2022-12-18T15:55:15.891Z,82.68
2022-12-18T15:57:47.230Z,83.03
2022-12-18T16:00:19.717Z,83.37
2022-12-18T16:02:50.763Z,83.37
2022-12-18T16:05:24.089Z,83.40
2022-12-18T16:07:55.151Z,83.73
2022-12-18T16:10:27.303Z,83.69
2022-12-18T16:12:58.497Z,84.04
2022-12-18T16:15:29.562Z,84.04
2022-12-18T16:18:00.667Z,84.05
2022-12-18T16:20:31.677Z,83.81
2022-12-18T16:23:02.855Z,83.82
2022-12-18T16:25:34.371Z,83.97
2022-12-18T16:28:05.356Z,83.64
2022-12-18T16:30:38.566Z,83.66
2022-12-18T16:33:10.737Z,83.47
2022-12-18T16:35:41.917Z,83.45
2022-12-18T16:38:13.984Z,83.74
2022-12-18T16:40:58.703Z,83.60
2022-12-18T16:43:29.823Z,83.78
2022-12-18T16:46:01.927Z,83.74
2022-12-18T16:48:32.876Z,83.90
2022-12-18T16:51:05.866Z,84.28
2022-12-18T16:53:36.987Z,84.34
2022-12-18T16:56:08.428Z,84.12
2022-12-18T16:58:39.307Z,84.13
2022-12-18T17:01:13.364Z,84.04
2022-12-18T17:03:45.065Z,84.12
2022-12-18T17:06:17.660Z,84.06
2022-12-18T17:08:50.270Z,84.23
2022-12-18T17:11:21.865Z,84.13
2022-12-18T17:13:53.059Z,84.34
2022-12-18T17:16:24.708Z,83.96
2022-12-18T17:18:55.028Z,84.05
2022-12-18T17:21:26.172Z,84.10
2022-12-18T17:23:57.356Z,84.41
2022-12-18T17:26:28.587Z,84.15
2022-12-18T17:29:00.901Z,84.15
2022-12-18T17:31:33.097Z,84.01
2022-12-18T17:34:04.455Z,83.91
2022-12-18T17:36:35.516Z,84.01
2022-12-18T17:39:08.052Z,83.87
2022-12-18T17:41:39.251Z,83.70
2022-12-18T17:44:10.313Z,83.75
2022-12-18T17:46:43.826Z,83.82
2022-12-18T17:49:15.678Z,83.75
2022-12-18T17:51:46.594Z,83.85
2022-12-18T17:54:17.563Z,83.92
2022-12-18T17:56:49.358Z,83.53
2022-12-18T17:59:20.989Z,83.47
2022-12-18T18:01:52.078Z,83.49
2022-12-18T18:04:23.258Z,83.22
2022-12-18T18:06:54.272Z,83.43
2022-12-18T18:09:25.437Z,83.33
2022-12-18T18:12:14.684Z,83.20
2022-12-18T18:14:45.753Z,83.25
2022-12-18T18:17:16.807Z,83.29
2022-12-18T18:19:49.694Z,83.39
2022-12-18T18:22:21.223Z,83.22
2022-12-18T18:24:55.372Z,83.21
2022-12-18T18:27:26.654Z,82.87
2022-12-18T18:29:58.199Z,82.97
2022-12-18T18:32:29.373Z,83.21
2022-12-18T18:35:00.685Z,83.09
2022-12-18T18:37:31.656Z,82.78
2022-12-18T18:40:02.971Z,82.82
2022-12-18T18:42:34.117Z,82.70
2022-12-18T18:45:05.463Z,82.48
2022-12-18T18:47:36.649Z,82.48
2022-12-18T18:50:09.363Z,82.65
2022-12-18T18:52:40.593Z,82.53
2022-12-18T18:55:25.332Z,82.29
2022-12-18T18:57:57.037Z,82.27
2022-12-18T19:00:28.448Z,82.24
2022-12-18T19:03:00.911Z,81.91
2022-12-18T19:05:33.921Z,82.18
2022-12-18T19:08:05.370Z,82.26
2022-12-18T19:10:40.885Z,81.84
2022-12-18T19:13:22.338Z,81.98
2022-12-18T19:15:55.565Z,81.96
2022-12-18T19:18:27.245Z,81.50
2022-12-18T19:21:00.111Z,81.57
2022-12-18T19:23:31.887Z,81.31
2022-12-18T19:29:03.551Z,81.38
2022-12-18T19:31:36.487Z,81.11
2022-12-18T19:34:09.725Z,81.13
2022-12-18T19:36:42.190Z,81.18
2022-12-18T19:39:14.947Z,81.41
2022-12-18T19:41:46.526Z,81.38
2022-12-18T19:44:18.780Z,81.32
2022-12-18T19:46:52.649Z,81.11
2022-12-18T19:49:23.808Z,81.30
2022-12-18T19:51:55.399Z,81.16
2022-12-18T19:54:26.365Z,81.14
2022-12-18T19:56:57.693Z,81.09
2022-12-18T19:59:28.689Z,81.18
2022-12-18T20:01:59.970Z,81.09
2022-12-18T20:04:32.004Z,81.03
2022-12-18T20:07:01.923Z,81.13
2022-12-18T20:09:33.290Z,81.26
2022-12-18T20:12:04.858Z,81.13
2022-12-18T20:14:35.874Z,81.17
2022-12-18T20:17:06.921Z,81.12
2022-12-18T20:19:38.221Z,81.47
2022-12-18T20:22:09.624Z,81.32
2022-12-18T20:24:40.945Z,81.23
2022-12-18T20:27:16.152Z,81.38
2022-12-18T20:29:49.657Z,81.23
2022-12-18T20:32:20.903Z,81.37
2022-12-18T20:34:52.186Z,81.67
2022-12-18T20:37:23.985Z,81.40
2022-12-18T20:39:56.388Z,81.09
2022-12-18T20:42:27.475Z,81.06
2022-12-18T20:44:58.434Z,81.39
2022-12-18T20:47:29.288Z,81.26
2022-12-18T20:50:00.966Z,81.43
2022-12-18T20:52:31.868Z,81.00
2022-12-18T20:55:03.038Z,80.86
2022-12-18T20:57:34.014Z,81.12
2022-12-18T21:00:07.272Z,80.85
2022-12-18T21:02:38.714Z,80.95
2022-12-18T21:05:10.834Z,80.72
2022-12-18T21:07:41.812Z,80.57
2022-12-18T21:10:13.015Z,80.71
2022-12-18T21:12:58.866Z,80.45
2022-12-18T21:15:31.074Z,80.33
2022-12-18T21:18:01.879Z,80.46
2022-12-18T21:20:32.977Z,80.69
2022-12-18T21:23:16.595Z,80.92
2022-12-18T21:25:48.353Z,80.86
2022-12-18T21:28:25.742Z,80.83
2022-12-18T21:30:57.998Z,80.54
2022-12-18T21:33:27.394Z,80.97
2022-12-18T21:35:58.514Z,80.70
2022-12-18T21:38:30.432Z,80.72
2022-12-18T21:41:01.640Z,80.97
2022-12-18T21:43:50.278Z,80.79
2022-12-18T21:46:21.306Z,81.28
2022-12-18T21:48:52.424Z,81.33
2022-12-18T21:51:23.254Z,80.89
2022-12-18T21:53:54.123Z,80.87
2022-12-18T21:56:25.115Z,80.72
2022-12-18T21:58:56.833Z,80.85
2022-12-18T22:01:32.706Z,80.79
2022-12-18T22:04:08.953Z,80.84
2022-12-18T22:06:40.060Z,80.74
2022-12-18T22:09:12.507Z,80.85
2022-12-18T22:11:43.842Z,80.92
2022-12-18T22:14:15.022Z,80.80
2022-12-18T22:16:46.684Z,80.78
2022-12-18T22:19:17.865Z,81.30
2022-12-18T22:21:50.381Z,81.23
2022-12-18T22:24:22.603Z,81.18
2022-12-18T22:27:01.631Z,81.32
2022-12-18T22:29:50.985Z,81.00
2022-12-18T22:32:30.781Z,81.10
2022-12-18T22:35:08.381Z,80.85
2022-12-18T22:37:41.583Z,80.89
2022-12-18T22:40:23.881Z,80.82
2022-12-18T22:42:56.064Z,81.08
2022-12-18T22:45:27.898Z,80.96
2022-12-18T22:47:58.826Z,81.11
2022-12-18T22:50:30.200Z,81.13
2022-12-18T22:53:01.357Z,80.90
2022-12-18T22:55:32.256Z,80.80
2022-12-18T22:58:03.375Z,80.83
2022-12-18T23:00:34.702Z,80.64
2022-12-18T23:03:07.301Z,80.98
2022-12-18T23:05:38.341Z,80.99
2022-12-18T23:08:09.314Z,80.84
2022-12-18T23:10:41.245Z,80.99
2022-12-18T23:13:12.447Z,81.17
2022-12-18T23:15:45.198Z,80.95
2022-12-18T23:18:16.208Z,81.05
2022-12-18T23:20:47.251Z,80.89
2022-12-18T23:23:18.601Z,80.93
2022-12-18T23:25:49.912Z,81.04
2022-12-18T23:28:20.817Z,80.92
2022-12-18T23:30:51.987Z,80.97
2022-12-18T23:33:23.077Z,80.96
2022-12-18T23:35:58.558Z,80.92
2022-12-18T23:38:29.454Z,80.84
2022-12-18T23:41:00.875Z,80.96
2022-12-18T23:43:32.046Z,80.95
2022-12-18T23:46:03.117Z,80.80
2022-12-18T23:48:34.279Z,80.87
2022-12-18T23:51:10.198Z,80.78
2022-12-18T23:53:41.345Z,80.75
2022-12-18T23:56:13.990Z,80.90
2022-12-18T23:58:45.654Z,80.95
